sensor_id;sensor_type;location;lat;lon;timestamp;pressure;altitude;pressure_sealevel;temperature;humidity
5126;BME280;63008;53.112;8.896;2023-06-10T00:01:22;101724.41;;;16.09;79.85
5126;BME280;63008;53.112;8.896;2023-06-10T00:03:24;101722.66;;;16.17;79.93
5126;BME280;63008;53.112;8.896;2023-06-10T00:05:25;101727.53;;;16.08;80.63
5126;BME280;63008;53.112;8.896;2023-06-10T00:07:26;101728.13;;;16.01;80.82
5126;BME280;63008;53.112;8.896;2023-06-10T00:09:27;101724.63;;;15.92;81.46
5126;BME280;63008;53.112;8.896;2023-06-10T00:11:33;101716.81;;;15.94;81.48
5126;BME280;63008;53.112;8.896;2023-06-10T00:13:34;101726.16;;;15.90;82.31
5126;BME280;63008;53.112;8.896;2023-06-10T00:15:35;101724.06;;;15.87;82.10
5126;BME280;63008;53.112;8.896;2023-06-10T00:17:36;101722.31;;;15.70;83.59
5126;BME280;63008;53.112;8.896;2023-06-10T00:19:39;101721.50;;;15.58;84.46
5126;BME280;63008;53.112;8.896;2023-06-10T00:21:41;101727.72;;;15.55;84.77
5126;BME280;63008;53.112;8.896;2023-06-10T00:23:42;101721.38;;;15.42;86.04
5126;BME280;63008;53.112;8.896;2023-06-10T00:25:44;101722.50;;;15.41;86.26
5126;BME280;63008;53.112;8.896;2023-06-10T00:27:45;101727.44;;;15.36;86.91
5126;BME280;63008;53.112;8.896;2023-06-10T00:29:46;101715.91;;;15.34;87.26
5126;BME280;63008;53.112;8.896;2023-06-10T00:31:47;101721.44;;;15.34;87.49
5126;BME280;63008;53.112;8.896;2023-06-10T00:33:48;101714.41;;;15.36;87.21
5126;BME280;63008;53.112;8.896;2023-06-10T00:35:49;101718.56;;;15.30;88.06
5126;BME280;63008;53.112;8.896;2023-06-10T00:37:50;101726.03;;;15.30;88.48
5126;BME280;63008;53.112;8.896;2023-06-10T00:39:51;101724.00;;;15.18;89.46
5126;BME280;63008;53.112;8.896;2023-06-10T00:41:52;101730.34;;;15.19;89.67
5126;BME280;63008;53.112;8.896;2023-06-10T00:43:53;101727.22;;;15.08;90.48
5126;BME280;63008;53.112;8.896;2023-06-10T00:45:54;101724.78;;;15.07;90.95
5126;BME280;63008;53.112;8.896;2023-06-10T00:47:55;101737.44;;;15.08;90.89
5126;BME280;63008;53.112;8.896;2023-06-10T00:49:56;101732.28;;;15.06;91.06
5126;BME280;63008;53.112;8.896;2023-06-10T00:51:58;101734.69;;;15.08;90.97
5126;BME280;63008;53.112;8.896;2023-06-10T00:53:59;101729.69;;;15.01;91.26
5126;BME280;63008;53.112;8.896;2023-06-10T00:56:00;101726.31;;;14.96;91.81
5126;BME280;63008;53.112;8.896;2023-06-10T00:58:01;101731.22;;;14.99;91.65
5126;BME280;63008;53.112;8.896;2023-06-10T01:00:04;101729.78;;;14.93;92.25
5126;BME280;63008;53.112;8.896;2023-06-10T01:02:08;101724.47;;;14.88;92.55
5126;BME280;63008;53.112;8.896;2023-06-10T01:04:09;101731.13;;;14.87;92.37
5126;BME280;63008;53.112;8.896;2023-06-10T01:06:20;101732.97;;;14.83;92.97
5126;BME280;63008;53.112;8.896;2023-06-10T01:08:35;101736.94;;;14.73;93.67
5126;BME280;63008;53.112;8.896;2023-06-10T01:10:57;101748.88;;;14.86;92.94
5126;BME280;63008;53.112;8.896;2023-06-10T01:13:00;101747.94;;;14.82;92.99
5126;BME280;63008;53.112;8.896;2023-06-10T01:15:06;101746.66;;;14.79;93.30
5126;BME280;63008;53.112;8.896;2023-06-10T01:17:09;101752.44;;;14.86;92.55
5126;BME280;63008;53.112;8.896;2023-06-10T01:19:11;101752.78;;;14.85;92.98
5126;BME280;63008;53.112;8.896;2023-06-10T01:21:22;101754.13;;;14.79;92.97
5126;BME280;63008;53.112;8.896;2023-06-10T01:23:27;101752.44;;;14.66;94.09
5126;BME280;63008;53.112;8.896;2023-06-10T01:25:29;101749.41;;;14.59;94.96
5126;BME280;63008;53.112;8.896;2023-06-10T01:27:34;101751.38;;;14.59;94.91
5126;BME280;63008;53.112;8.896;2023-06-10T01:29:46;101761.59;;;14.58;94.91
5126;BME280;63008;53.112;8.896;2023-06-10T01:31:54;101758.81;;;14.58;94.81
5126;BME280;63008;53.112;8.896;2023-06-10T01:33:59;101758.09;;;14.49;95.29
5126;BME280;63008;53.112;8.896;2023-06-10T01:36:02;101762.19;;;14.43;95.71
5126;BME280;63008;53.112;8.896;2023-06-10T01:38:03;101759.63;;;14.38;96.24
5126;BME280;63008;53.112;8.896;2023-06-10T01:40:05;101765.50;;;14.37;96.17
5126;BME280;63008;53.112;8.896;2023-06-10T01:42:08;101765.28;;;14.42;96.04
5126;BME280;63008;53.112;8.896;2023-06-10T01:44:10;101765.28;;;14.42;95.79
5126;BME280;63008;53.112;8.896;2023-06-10T01:46:11;101772.22;;;14.48;95.32
5126;BME280;63008;53.112;8.896;2023-06-10T01:48:12;101770.66;;;14.38;95.99
5126;BME280;63008;53.112;8.896;2023-06-10T01:50:13;101767.69;;;14.23;96.77
5126;BME280;63008;53.112;8.896;2023-06-10T01:52:15;101767.38;;;14.16;97.78
5126;BME280;63008;53.112;8.896;2023-06-10T01:54:16;101759.94;;;14.08;98.38
5126;BME280;63008;53.112;8.896;2023-06-10T01:56:17;101762.38;;;14.09;98.37
5126;BME280;63008;53.112;8.896;2023-06-10T01:58:20;101762.22;;;14.06;98.29
5126;BME280;63008;53.112;8.896;2023-06-10T02:00:21;101766.78;;;14.02;98.75
5126;BME280;63008;53.112;8.896;2023-06-10T02:02:22;101770.66;;;14.09;98.03
5126;BME280;63008;53.112;8.896;2023-06-10T02:04:23;101762.84;;;14.11;97.92
5126;BME280;63008;53.112;8.896;2023-06-10T02:06:24;101771.13;;;14.11;97.80
5126;BME280;63008;53.112;8.896;2023-06-10T02:08:25;101767.06;;;14.09;97.71
5126;BME280;63008;53.112;8.896;2023-06-10T02:10:26;101765.44;;;14.08;97.60
5126;BME280;63008;53.112;8.896;2023-06-10T02:12:27;101771.78;;;14.00;98.38
5126;BME280;63008;53.112;8.896;2023-06-10T02:14:28;101774.25;;;14.01;98.13
5126;BME280;63008;53.112;8.896;2023-06-10T02:16:29;101781.09;;;13.95;98.55
5126;BME280;63008;53.112;8.896;2023-06-10T02:18:30;101779.44;;;14.03;98.34
5126;BME280;63008;53.112;8.896;2023-06-10T02:20:31;101787.84;;;14.06;97.74
5126;BME280;63008;53.112;8.896;2023-06-10T02:22:32;101786.06;;;14.10;97.46
5126;BME280;63008;53.112;8.896;2023-06-10T02:24:33;101791.28;;;14.03;98.09
5126;BME280;63008;53.112;8.896;2023-06-10T02:26:34;101800.50;;;14.07;98.15
5126;BME280;63008;53.112;8.896;2023-06-10T02:28:35;101805.53;;;14.14;98.45
5126;BME280;63008;53.112;8.896;2023-06-10T02:30:39;101801.03;;;14.09;99.32
5126;BME280;63008;53.112;8.896;2023-06-10T02:32:40;101806.53;;;14.09;99.76
5126;BME280;63008;53.112;8.896;2023-06-10T02:34:42;101801.59;;;14.23;99.02
5126;BME280;63008;53.112;8.896;2023-06-10T02:36:43;101804.72;;;14.13;99.44
5126;BME280;63008;53.112;8.896;2023-06-10T02:38:44;101797.91;;;14.19;99.68
5126;BME280;63008;53.112;8.896;2023-06-10T02:40:45;101805.72;;;14.17;99.69
5126;BME280;63008;53.112;8.896;2023-06-10T02:42:46;101802.28;;;14.20;99.36
5126;BME280;63008;53.112;8.896;2023-06-10T02:44:47;101804.09;;;14.16;99.30
5126;BME280;63008;53.112;8.896;2023-06-10T02:46:48;101799.66;;;14.24;98.68
5126;BME280;63008;53.112;8.896;2023-06-10T02:48:49;101805.34;;;14.27;98.16
5126;BME280;63008;53.112;8.896;2023-06-10T02:50:52;101809.19;;;14.35;97.54
5126;BME280;63008;53.112;8.896;2023-06-10T02:52:53;101806.94;;;14.37;97.73
5126;BME280;63008;53.112;8.896;2023-06-10T02:54:54;101802.66;;;14.39;97.03
5126;BME280;63008;53.112;8.896;2023-06-10T02:56:55;101796.47;;;14.42;96.90
5126;BME280;63008;53.112;8.896;2023-06-10T02:58:57;101798.59;;;14.45;96.87
5126;BME280;63008;53.112;8.896;2023-06-10T03:00:58;101798.75;;;14.40;96.79
5126;BME280;63008;53.112;8.896;2023-06-10T03:02:59;101795.31;;;14.43;96.95
5126;BME280;63008;53.112;8.896;2023-06-10T03:05:03;101798.38;;;14.50;96.57
5126;BME280;63008;53.112;8.896;2023-06-10T03:07:04;101793.00;;;14.54;96.17
5126;BME280;63008;53.112;8.896;2023-06-10T03:09:07;101803.03;;;14.58;95.61
5126;BME280;63008;53.112;8.896;2023-06-10T03:11:08;101791.03;;;14.54;94.98
5126;BME280;63008;53.112;8.896;2023-06-10T03:13:09;101795.09;;;14.57;95.26
5126;BME280;63008;53.112;8.896;2023-06-10T03:15:10;101794.75;;;14.58;94.79
5126;BME280;63008;53.112;8.896;2023-06-10T03:17:12;101795.63;;;14.50;94.82
5126;BME280;63008;53.112;8.896;2023-06-10T03:19:13;101793.19;;;14.49;94.33
5126;BME280;63008;53.112;8.896;2023-06-10T03:21:13;101794.25;;;14.36;94.59
5126;BME280;63008;53.112;8.896;2023-06-10T03:23:14;101799.53;;;14.49;94.61
5126;BME280;63008;53.112;8.896;2023-06-10T03:25:16;101802.28;;;14.49;94.02
5126;BME280;63008;53.112;8.896;2023-06-10T03:27:18;101800.41;;;14.33;93.82
5126;BME280;63008;53.112;8.896;2023-06-10T03:29:19;101803.81;;;14.38;93.89
5126;BME280;63008;53.112;8.896;2023-06-10T03:31:20;101801.72;;;14.35;93.97
5126;BME280;63008;53.112;8.896;2023-06-10T03:33:21;101804.00;;;14.33;93.74
5126;BME280;63008;53.112;8.896;2023-06-10T03:35:22;101809.50;;;14.42;93.18
5126;BME280;63008;53.112;8.896;2023-06-10T03:37:24;101807.00;;;14.49;92.75
5126;BME280;63008;53.112;8.896;2023-06-10T03:39:25;101812.41;;;14.45;92.02
5126;BME280;63008;53.112;8.896;2023-06-10T03:41:29;101803.53;;;14.31;92.71
5126;BME280;63008;53.112;8.896;2023-06-10T03:43:30;101809.34;;;14.38;92.42
5126;BME280;63008;53.112;8.896;2023-06-10T03:45:32;101816.81;;;14.38;92.55
5126;BME280;63008;53.112;8.896;2023-06-10T03:47:37;101818.19;;;14.23;92.35
5126;BME280;63008;53.112;8.896;2023-06-10T03:49:38;101820.81;;;14.20;92.84
5126;BME280;63008;53.112;8.896;2023-06-10T03:51:41;101817.38;;;14.14;92.74
5126;BME280;63008;53.112;8.896;2023-06-10T03:53:41;101817.56;;;14.18;92.42
5126;BME280;63008;53.112;8.896;2023-06-10T03:55:43;101816.44;;;14.19;92.01
5126;BME280;63008;53.112;8.896;2023-06-10T03:57:44;101813.44;;;14.32;91.97
5126;BME280;63008;53.112;8.896;2023-06-10T03:59:44;101815.53;;;14.35;91.43
5126;BME280;63008;53.112;8.896;2023-06-10T04:01:45;101817.00;;;14.33;90.56
5126;BME280;63008;53.112;8.896;2023-06-10T04:03:47;101817.66;;;14.30;90.66
5126;BME280;63008;53.112;8.896;2023-06-10T04:05:49;101811.19;;;14.26;90.46
5126;BME280;63008;53.112;8.896;2023-06-10T04:07:50;101815.72;;;14.30;90.79
5126;BME280;63008;53.112;8.896;2023-06-10T04:09:54;101821.91;;;14.27;90.45
5126;BME280;63008;53.112;8.896;2023-06-10T04:11:55;101810.19;;;14.30;90.35
5126;BME280;63008;53.112;8.896;2023-06-10T04:13:56;101813.75;;;14.31;89.85
5126;BME280;63008;53.112;8.896;2023-06-10T04:15:57;101817.38;;;14.23;89.67
5126;BME280;63008;53.112;8.896;2023-06-10T04:17:58;101820.63;;;14.25;90.28
5126;BME280;63008;53.112;8.896;2023-06-10T04:19:59;101818.66;;;14.25;90.26
5126;BME280;63008;53.112;8.896;2023-06-10T04:22:01;101823.41;;;14.16;90.88
5126;BME280;63008;53.112;8.896;2023-06-10T04:24:03;101825.72;;;14.06;91.07
5126;BME280;63008;53.112;8.896;2023-06-10T04:26:04;101826.34;;;14.11;91.09
5126;BME280;63008;53.112;8.896;2023-06-10T04:28:06;101828.44;;;14.23;90.05
5126;BME280;63008;53.112;8.896;2023-06-10T04:30:07;101831.84;;;14.20;90.75
5126;BME280;63008;53.112;8.896;2023-06-10T04:32:09;101824.53;;;14.15;91.24
5126;BME280;63008;53.112;8.896;2023-06-10T04:34:09;101832.34;;;14.22;90.41
5126;BME280;63008;53.112;8.896;2023-06-10T04:36:10;101828.44;;;14.23;89.76
5126;BME280;63008;53.112;8.896;2023-06-10T04:38:11;101823.22;;;14.13;90.08
5126;BME280;63008;53.112;8.896;2023-06-10T04:40:13;101830.38;;;14.14;90.14
5126;BME280;63008;53.112;8.896;2023-06-10T04:42:16;101837.03;;;14.21;90.04
5126;BME280;63008;53.112;8.896;2023-06-10T04:44:17;101832.81;;;14.24;88.74
5126;BME280;63008;53.112;8.896;2023-06-10T04:46:19;101831.50;;;14.21;89.73
5126;BME280;63008;53.112;8.896;2023-06-10T04:48:20;101833.94;;;14.14;89.77
5126;BME280;63008;53.112;8.896;2023-06-10T04:50:21;101831.00;;;14.28;89.48
5126;BME280;63008;53.112;8.896;2023-06-10T04:52:22;101835.22;;;14.25;89.27
5126;BME280;63008;53.112;8.896;2023-06-10T04:54:23;101833.25;;;14.34;89.64
5126;BME280;63008;53.112;8.896;2023-06-10T04:56:24;101832.97;;;14.27;89.06
5126;BME280;63008;53.112;8.896;2023-06-10T04:58:25;101833.03;;;14.39;89.12
5126;BME280;63008;53.112;8.896;2023-06-10T05:00:26;101823.97;;;14.39;89.40
5126;BME280;63008;53.112;8.896;2023-06-10T05:02:27;101824.66;;;14.56;87.94
5126;BME280;63008;53.112;8.896;2023-06-10T05:04:28;101830.47;;;14.34;88.43
5126;BME280;63008;53.112;8.896;2023-06-10T05:06:30;101828.09;;;14.24;88.96
5126;BME280;63008;53.112;8.896;2023-06-10T05:08:31;101823.38;;;14.25;88.95
5126;BME280;63008;53.112;8.896;2023-06-10T05:10:32;101823.38;;;14.25;88.27
5126;BME280;63008;53.112;8.896;2023-06-10T05:12:34;101823.56;;;14.11;88.94
5126;BME280;63008;53.112;8.896;2023-06-10T05:14:35;101822.75;;;14.19;88.71
5126;BME280;63008;53.112;8.896;2023-06-10T05:16:36;101823.69;;;14.23;88.73
5126;BME280;63008;53.112;8.896;2023-06-10T05:18:37;101823.53;;;14.28;88.63
5126;BME280;63008;53.112;8.896;2023-06-10T05:20:38;101827.41;;;14.36;88.32
5126;BME280;63008;53.112;8.896;2023-06-10T05:22:40;101826.00;;;14.50;87.35
5126;BME280;63008;53.112;8.896;2023-06-10T05:24:41;101823.72;;;14.52;87.14
5126;BME280;63008;53.112;8.896;2023-06-10T05:26:42;101831.66;;;14.62;87.36
5126;BME280;63008;53.112;8.896;2023-06-10T05:28:43;101832.44;;;14.63;86.09
5126;BME280;63008;53.112;8.896;2023-06-10T05:30:44;101825.56;;;14.68;86.56
5126;BME280;63008;53.112;8.896;2023-06-10T05:32:45;101827.72;;;14.63;85.82
5126;BME280;63008;53.112;8.896;2023-06-10T05:34:46;101825.75;;;14.63;86.69
5126;BME280;63008;53.112;8.896;2023-06-10T05:36:47;101827.59;;;14.60;86.64
5126;BME280;63008;53.112;8.896;2023-06-10T05:38:48;101830.72;;;14.50;86.40
5126;BME280;63008;53.112;8.896;2023-06-10T05:40:49;101829.41;;;14.56;86.37
5126;BME280;63008;53.112;8.896;2023-06-10T05:42:50;101839.31;;;14.57;86.10
5126;BME280;63008;53.112;8.896;2023-06-10T05:44:51;101842.44;;;14.75;85.58
5126;BME280;63008;53.112;8.896;2023-06-10T05:46:55;101837.97;;;14.63;85.53
5126;BME280;63008;53.112;8.896;2023-06-10T05:48:56;101834.41;;;14.82;85.09
5126;BME280;63008;53.112;8.896;2023-06-10T05:51:00;101841.91;;;15.02;84.37
5126;BME280;63008;53.112;8.896;2023-06-10T05:53:01;101835.69;;;15.05;83.57
5126;BME280;63008;53.112;8.896;2023-06-10T05:55:03;101838.16;;;15.07;83.09
5126;BME280;63008;53.112;8.896;2023-06-10T05:57:04;101835.78;;;14.97;84.29
5126;BME280;63008;53.112;8.896;2023-06-10T05:59:06;101827.50;;;14.97;84.61
5126;BME280;63008;53.112;8.896;2023-06-10T06:01:07;101830.00;;;15.10;84.10
5126;BME280;63008;53.112;8.896;2023-06-10T06:03:09;101835.69;;;15.05;84.05
5126;BME280;63008;53.112;8.896;2023-06-10T06:05:10;101833.84;;;15.18;83.09
5126;BME280;63008;53.112;8.896;2023-06-10T06:07:11;101836.06;;;15.24;83.94
5126;BME280;63008;53.112;8.896;2023-06-10T06:09:12;101831.38;;;15.57;82.02
5126;BME280;63008;53.112;8.896;2023-06-10T06:11:13;101835.00;;;15.70;81.98
5126;BME280;63008;53.112;8.896;2023-06-10T06:13:14;101840.53;;;15.70;81.19
5126;BME280;63008;53.112;8.896;2023-06-10T06:15:15;101837.22;;;15.76;81.38
5126;BME280;63008;53.112;8.896;2023-06-10T06:17:16;101841.63;;;15.89;80.71
5126;BME280;63008;53.112;8.896;2023-06-10T06:19:17;101853.44;;;15.98;80.11
5126;BME280;63008;53.112;8.896;2023-06-10T06:21:18;101854.47;;;16.06;78.71
5126;BME280;63008;53.112;8.896;2023-06-10T06:23:19;101844.53;;;15.93;78.79
5126;BME280;63008;53.112;8.896;2023-06-10T06:25:20;101859.09;;;15.69;79.39
5126;BME280;63008;53.112;8.896;2023-06-10T06:27:21;101864.00;;;15.52;80.12
5126;BME280;63008;53.112;8.896;2023-06-10T06:29:25;101856.72;;;15.47;79.92
5126;BME280;63008;53.112;8.896;2023-06-10T06:31:26;101853.56;;;15.69;80.29
5126;BME280;63008;53.112;8.896;2023-06-10T06:33:27;101849.59;;;15.91;79.35
5126;BME280;63008;53.112;8.896;2023-06-10T06:35:32;101851.06;;;15.76;80.23
5126;BME280;63008;53.112;8.896;2023-06-10T06:37:35;101847.16;;;15.77;79.32
5126;BME280;63008;53.112;8.896;2023-06-10T06:39:36;101847.56;;;15.67;79.87
5126;BME280;63008;53.112;8.896;2023-06-10T06:41:37;101852.38;;;15.58;80.26
5126;BME280;63008;53.112;8.896;2023-06-10T06:43:39;101848.19;;;15.52;80.28
5126;BME280;63008;53.112;8.896;2023-06-10T06:45:40;101848.25;;;15.64;79.96
5126;BME280;63008;53.112;8.896;2023-06-10T06:47:41;101847.88;;;15.66;80.53
5126;BME280;63008;53.112;8.896;2023-06-10T06:49:43;101846.28;;;15.65;80.47
5126;BME280;63008;53.112;8.896;2023-06-10T06:51:44;101846.75;;;15.67;80.03
5126;BME280;63008;53.112;8.896;2023-06-10T06:53:45;101840.47;;;15.78;80.07
5126;BME280;63008;53.112;8.896;2023-06-10T06:55:46;101851.34;;;15.63;80.56
5126;BME280;63008;53.112;8.896;2023-06-10T06:57:47;101849.31;;;15.72;80.33
5126;BME280;63008;53.112;8.896;2023-06-10T06:59:48;101841.69;;;15.69;80.35
5126;BME280;63008;53.112;8.896;2023-06-10T07:01:49;101849.94;;;15.89;80.71
5126;BME280;63008;53.112;8.896;2023-06-10T07:03:50;101842.44;;;16.02;78.70
5126;BME280;63008;53.112;8.896;2023-06-10T07:05:51;101845.22;;;16.02;78.57
5126;BME280;63008;53.112;8.896;2023-06-10T07:07:55;101844.09;;;16.03;78.74
5126;BME280;63008;53.112;8.896;2023-06-10T07:09:56;101845.59;;;16.00;77.93
5126;BME280;63008;53.112;8.896;2023-06-10T07:11:57;101851.03;;;16.09;78.25
5126;BME280;63008;53.112;8.896;2023-06-10T07:14:01;101845.59;;;16.24;78.02
5126;BME280;63008;53.112;8.896;2023-06-10T07:16:02;101848.63;;;16.31;76.88
5126;BME280;63008;53.112;8.896;2023-06-10T07:18:03;101847.13;;;16.34;76.86
5126;BME280;63008;53.112;8.896;2023-06-10T07:20:05;101848.75;;;16.35;76.58
5126;BME280;63008;53.112;8.896;2023-06-10T07:22:06;101848.75;;;16.35;76.62
5126;BME280;63008;53.112;8.896;2023-06-10T07:24:07;101852.91;;;16.52;76.11
5126;BME280;63008;53.112;8.896;2023-06-10T07:26:08;101848.31;;;16.57;76.18
5126;BME280;63008;53.112;8.896;2023-06-10T07:28:11;101855.81;;;16.44;76.51
5126;BME280;63008;53.112;8.896;2023-06-10T07:30:12;101843.00;;;16.40;77.13
5126;BME280;63008;53.112;8.896;2023-06-10T07:32:13;101851.44;;;16.55;77.95
5126;BME280;63008;53.112;8.896;2023-06-10T07:34:14;101848.09;;;16.73;76.37
5126;BME280;63008;53.112;8.896;2023-06-10T07:36:15;101849.44;;;16.91;76.01
5126;BME280;63008;53.112;8.896;2023-06-10T07:38:17;101851.47;;;17.06;75.78
5126;BME280;63008;53.112;8.896;2023-06-10T07:40:18;101863.13;;;17.24;74.49
5126;BME280;63008;53.112;8.896;2023-06-10T07:42:19;101858.88;;;17.14;74.10
5126;BME280;63008;53.112;8.896;2023-06-10T07:44:20;101861.38;;;17.31;73.63
5126;BME280;63008;53.112;8.896;2023-06-10T07:46:22;101852.09;;;17.39;72.94
5126;BME280;63008;53.112;8.896;2023-06-10T07:48:23;101853.38;;;17.42;72.25
5126;BME280;63008;53.112;8.896;2023-06-10T07:50:24;101843.84;;;17.55;72.34
5126;BME280;63008;53.112;8.896;2023-06-10T07:52:25;101843.00;;;17.39;72.33
5126;BME280;63008;53.112;8.896;2023-06-10T07:54:26;101842.00;;;17.47;71.75
5126;BME280;63008;53.112;8.896;2023-06-10T07:56:27;101839.91;;;17.56;72.41
5126;BME280;63008;53.112;8.896;2023-06-10T07:58:28;101841.22;;;17.46;71.75
5126;BME280;63008;53.112;8.896;2023-06-10T08:00:29;101834.44;;;17.59;72.94
5126;BME280;63008;53.112;8.896;2023-06-10T08:02:30;101837.44;;;17.82;71.70
5126;BME280;63008;53.112;8.896;2023-06-10T08:04:31;101829.50;;;17.96;71.34
5126;BME280;63008;53.112;8.896;2023-06-10T08:06:32;101828.34;;;18.12;70.74
5126;BME280;63008;53.112;8.896;2023-06-10T08:08:33;101829.78;;;18.22;70.28
5126;BME280;63008;53.112;8.896;2023-06-10T08:10:35;101834.84;;;18.32;70.11
5126;BME280;63008;53.112;8.896;2023-06-10T08:12:36;101836.38;;;18.45;70.07
5126;BME280;63008;53.112;8.896;2023-06-10T08:14:37;101835.59;;;18.63;69.50
5126;BME280;63008;53.112;8.896;2023-06-10T08:16:39;101833.41;;;18.53;68.53
5126;BME280;63008;53.112;8.896;2023-06-10T08:18:40;101828.63;;;18.53;68.71
5126;BME280;63008;53.112;8.896;2023-06-10T08:20:41;101840.00;;;18.64;69.59
5126;BME280;63008;53.112;8.896;2023-06-10T08:22:42;101829.06;;;18.55;67.59
5126;BME280;63008;53.112;8.896;2023-06-10T08:24:43;101826.31;;;18.40;69.07
5126;BME280;63008;53.112;8.896;2023-06-10T08:26:44;101824.47;;;18.63;68.13
5126;BME280;63008;53.112;8.896;2023-06-10T08:28:45;101827.06;;;18.71;68.17
5126;BME280;63008;53.112;8.896;2023-06-10T08:30:46;101829.75;;;18.83;68.39
5126;BME280;63008;53.112;8.896;2023-06-10T08:32:47;101831.63;;;19.14;67.59
5126;BME280;63008;53.112;8.896;2023-06-10T08:34:48;101836.16;;;19.03;67.23
5126;BME280;63008;53.112;8.896;2023-06-10T08:36:49;101825.53;;;19.08;66.36
5126;BME280;63008;53.112;8.896;2023-06-10T08:38:53;101820.78;;;19.09;66.73
5126;BME280;63008;53.112;8.896;2023-06-10T08:40:56;101824.34;;;19.25;66.07
5126;BME280;63008;53.112;8.896;2023-06-10T08:43:07;101830.22;;;19.39;66.04
5126;BME280;63008;53.112;8.896;2023-06-10T08:45:12;101834.03;;;19.15;65.56
5126;BME280;63008;53.112;8.896;2023-06-10T08:47:17;101830.00;;;19.28;65.62
5126;BME280;63008;53.112;8.896;2023-06-10T08:49:18;101828.63;;;19.60;65.51
5126;BME280;63008;53.112;8.896;2023-06-10T08:51:23;101819.31;;;19.72;62.74
5126;BME280;63008;53.112;8.896;2023-06-10T08:53:26;101832.53;;;19.75;63.21
5126;BME280;63008;53.112;8.896;2023-06-10T08:55:32;101827.56;;;20.06;62.51
5126;BME280;63008;53.112;8.896;2023-06-10T08:57:33;101820.66;;;20.23;61.92
5126;BME280;63008;53.112;8.896;2023-06-10T08:59:34;101823.25;;;20.57;61.58
5126;BME280;63008;53.112;8.896;2023-06-10T09:01:35;101822.44;;;20.82;60.43
5126;BME280;63008;53.112;8.896;2023-06-10T09:03:37;101820.75;;;21.00;59.69
5126;BME280;63008;53.112;8.896;2023-06-10T09:05:38;101816.63;;;21.20;58.55
5126;BME280;63008;53.112;8.896;2023-06-10T09:07:39;101818.13;;;21.44;59.56
5126;BME280;63008;53.112;8.896;2023-06-10T09:09:42;101817.47;;;21.57;57.93
5126;BME280;63008;53.112;8.896;2023-06-10T09:11:44;101824.81;;;21.69;58.66
5126;BME280;63008;53.112;8.896;2023-06-10T09:13:45;101822.91;;;21.76;56.81
5126;BME280;63008;53.112;8.896;2023-06-10T09:15:46;101824.41;;;22.07;56.10
5126;BME280;63008;53.112;8.896;2023-06-10T09:17:48;101826.38;;;22.03;55.63
5126;BME280;63008;53.112;8.896;2023-06-10T09:19:50;101832.22;;;22.27;56.54
5126;BME280;63008;53.112;8.896;2023-06-10T09:21:51;101820.66;;;22.29;54.90
5126;BME280;63008;53.112;8.896;2023-06-10T09:23:52;101814.88;;;22.11;55.71
5126;BME280;63008;53.112;8.896;2023-06-10T09:25:57;101820.97;;;22.20;55.68
5126;BME280;63008;53.112;8.896;2023-06-10T09:27:58;101820.66;;;22.32;54.50
5126;BME280;63008;53.112;8.896;2023-06-10T09:29:59;101819.88;;;22.35;54.47
5126;BME280;63008;53.112;8.896;2023-06-10T09:32:00;101822.03;;;22.52;54.11
5126;BME280;63008;53.112;8.896;2023-06-10T09:34:12;101823.31;;;23.19;53.27
5126;BME280;63008;53.112;8.896;2023-06-10T09:36:22;101817.53;;;22.94;51.91
5126;BME280;63008;53.112;8.896;2023-06-10T09:38:29;101811.69;;;23.17;52.96
5126;BME280;63008;53.112;8.896;2023-06-10T09:40:31;101821.59;;;23.89;50.26
5126;BME280;63008;53.112;8.896;2023-06-10T09:42:33;101818.78;;;23.86;50.33
5126;BME280;63008;53.112;8.896;2023-06-10T09:44:36;101808.81;;;24.68;49.23
5126;BME280;63008;53.112;8.896;2023-06-10T09:46:37;101804.34;;;24.92;49.33
5126;BME280;63008;53.112;8.896;2023-06-10T09:48:44;101805.88;;;25.24;47.83
5126;BME280;63008;53.112;8.896;2023-06-10T09:50:46;101808.53;;;25.52;47.51
5126;BME280;63008;53.112;8.896;2023-06-10T09:52:47;101810.00;;;25.85;45.05
5126;BME280;63008;53.112;8.896;2023-06-10T09:54:49;101820.28;;;26.09;44.42
5126;BME280;63008;53.112;8.896;2023-06-10T09:56:53;101810.19;;;25.50;46.49
5126;BME280;63008;53.112;8.896;2023-06-10T09:58:54;101810.69;;;26.06;45.54
5126;BME280;63008;53.112;8.896;2023-06-10T10:00:55;101811.06;;;26.08;44.64
5126;BME280;63008;53.112;8.896;2023-06-10T10:02:56;101816.13;;;26.27;43.27
5126;BME280;63008;53.112;8.896;2023-06-10T10:05:03;101810.28;;;26.55;41.82
5126;BME280;63008;53.112;8.896;2023-06-10T10:07:05;101814.47;;;26.33;42.78
5126;BME280;63008;53.112;8.896;2023-06-10T10:09:08;101808.63;;;26.10;43.56
5126;BME280;63008;53.112;8.896;2023-06-10T10:11:10;101800.59;;;26.96;41.60
5126;BME280;63008;53.112;8.896;2023-06-10T10:13:11;101807.06;;;26.93;42.22
5126;BME280;63008;53.112;8.896;2023-06-10T10:15:12;101815.13;;;27.32;41.96
5126;BME280;63008;53.112;8.896;2023-06-10T10:17:14;101805.09;;;26.90;41.35
5126;BME280;63008;53.112;8.896;2023-06-10T10:19:20;101801.06;;;26.51;41.07
5126;BME280;63008;53.112;8.896;2023-06-10T10:21:27;101802.69;;;26.89;42.22
5126;BME280;63008;53.112;8.896;2023-06-10T10:23:39;101804.22;;;26.60;41.28
5126;BME280;63008;53.112;8.896;2023-06-10T10:25:49;101802.91;;;26.68;42.89
5126;BME280;63008;53.112;8.896;2023-06-10T10:28:01;101801.47;;;27.27;40.66
5126;BME280;63008;53.112;8.896;2023-06-10T10:30:03;101806.06;;;27.44;40.03
5126;BME280;63008;53.112;8.896;2023-06-10T10:32:11;101808.06;;;27.77;39.40
5126;BME280;63008;53.112;8.896;2023-06-10T10:34:21;101800.03;;;27.45;40.63
5126;BME280;63008;53.112;8.896;2023-06-10T10:36:23;101796.38;;;27.15;40.81
5126;BME280;63008;53.112;8.896;2023-06-10T10:38:24;101803.03;;;27.31;40.29
5126;BME280;63008;53.112;8.896;2023-06-10T10:40:27;101796.97;;;27.33;40.67
5126;BME280;63008;53.112;8.896;2023-06-10T10:42:30;101803.09;;;27.54;40.89
5126;BME280;63008;53.112;8.896;2023-06-10T10:44:32;101792.25;;;27.53;41.88
5126;BME280;63008;53.112;8.896;2023-06-10T10:46:42;101795.63;;;27.41;39.51